sensor_id;sensor_type;location;lat;lon;timestamp;pressure;altitude;pressure_sealevel;temperature;humidity
11936;BME280;6027;48.576;9.180;2024-01-11T00:00:34;97744.78;;;-4.72;100.00
11936;BME280;6027;48.576;9.180;2024-01-11T00:02:59;97743.69;;;-4.66;100.00
11936;BME280;6027;48.576;9.180;2024-01-11T00:05:25;97735.25;;;-4.51;100.00
11936;BME280;6027;48.576;9.180;2024-01-11T00:07:50;97737.19;;;-4.56;100.00
11936;BME280;6027;48.576;9.180;2024-01-11T00:10:16;97736.47;;;-4.60;100.00
11936;BME280;6027;48.576;9.180;2024-01-11T00:12:42;97738.09;;;-4.57;100.00
11936;BME280;6027;48.576;9.180;2024-01-11T00:15:08;97735.50;;;-4.57;100.00
11936;BME280;6027;48.576;9.180;2024-01-11T00:17:33;97730.31;;;-4.76;100.00
11936;BME280;6027;48.576;9.180;2024-01-11T00:20:00;97744.91;;;-4.75;100.00
11936;BME280;6027;48.576;9.180;2024-01-11T00:22:26;97746.38;;;-4.69;100.00
11936;BME280;6027;48.576;9.180;2024-01-11T00:24:51;97742.13;;;-4.70;100.00
11936;BME280;6027;48.576;9.180;2024-01-11T00:27:17;97742.00;;;-4.67;100.00
11936;BME280;6027;48.576;9.180;2024-01-11T00:29:42;97747.34;;;-4.72;100.00
11936;BME280;6027;48.576;9.180;2024-01-11T00:32:08;97741.59;;;-4.78;100.00
11936;BME280;6027;48.576;9.180;2024-01-11T00:34:33;97746.78;;;-4.78;100.00
11936;BME280;6027;48.576;9.180;2024-01-11T00:36:58;97740.38;;;-4.70;100.00
11936;BME280;6027;48.576;9.180;2024-01-11T00:39:24;97738.84;;;-4.74;100.00
11936;BME280;6027;48.576;9.180;2024-01-11T00:41:49;97736.31;;;-4.75;100.00
11936;BME280;6027;48.576;9.180;2024-01-11T00:44:16;97750.66;;;-4.68;100.00
11936;BME280;6027;48.576;9.180;2024-01-11T00:46:41;97742.38;;;-4.76;100.00
11936;BME280;6027;48.576;9.180;2024-01-11T00:49:07;97733.47;;;-4.69;100.00
11936;BME280;6027;48.576;9.180;2024-01-11T00:51:33;97729.28;;;-4.72;100.00
11936;BME280;6027;48.576;9.180;2024-01-11T00:53:58;97742.91;;;-4.68;100.00
11936;BME280;6027;48.576;9.180;2024-01-11T00:56:24;97741.69;;;-4.61;100.00
11936;BME280;6027;48.576;9.180;2024-01-11T00:58:49;97730.81;;;-4.68;100.00
11936;BME280;6027;48.576;9.180;2024-01-11T01:01:14;97746.25;;;-4.66;100.00
11936;BME280;6027;48.576;9.180;2024-01-11T01:03:40;97747.50;;;-4.95;100.00
11936;BME280;6027;48.576;9.180;2024-01-11T01:06:06;97748.41;;;-4.96;100.00
11936;BME280;6027;48.576;9.180;2024-01-11T01:08:33;97745.75;;;-4.95;100.00
11936;BME280;6027;48.576;9.180;2024-01-11T01:10:58;97752.66;;;-4.95;100.00
11936;BME280;6027;48.576;9.180;2024-01-11T01:13:23;97751.13;;;-4.99;100.00
11936;BME280;6027;48.576;9.180;2024-01-11T01:15:49;97761.25;;;-4.95;100.00
11936;BME280;6027;48.576;9.180;2024-01-11T01:18:14;97752.75;;;-4.97;100.00
11936;BME280;6027;48.576;9.180;2024-01-11T01:20:40;97744.75;;;-5.11;100.00
11936;BME280;6027;48.576;9.180;2024-01-11T01:23:05;97752.75;;;-4.97;100.00
11936;BME280;6027;48.576;9.180;2024-01-11T01:25:31;97763.28;;;-5.01;100.00
11936;BME280;6027;48.576;9.180;2024-01-11T01:27:57;97764.47;;;-5.30;100.00
11936;BME280;6027;48.576;9.180;2024-01-11T01:30:24;97763.59;;;-5.29;100.00
11936;BME280;6027;48.576;9.180;2024-01-11T01:32:49;97769.13;;;-5.18;100.00
11936;BME280;6027;48.576;9.180;2024-01-11T01:35:15;97755.72;;;-5.06;100.00
11936;BME280;6027;48.576;9.180;2024-01-11T01:37:40;97761.97;;;-5.11;100.00
11936;BME280;6027;48.576;9.180;2024-01-11T01:40:06;97760.81;;;-5.04;100.00
11936;BME280;6027;48.576;9.180;2024-01-11T01:42:33;97765.72;;;-4.98;100.00
11936;BME280;6027;48.576;9.180;2024-01-11T01:44:58;97759.88;;;-5.02;100.00
11936;BME280;6027;48.576;9.180;2024-01-11T01:47:24;97758.25;;;-5.04;100.00
11936;BME280;6027;48.576;9.180;2024-01-11T01:49:50;97759.06;;;-5.24;100.00
11936;BME280;6027;48.576;9.180;2024-01-11T01:52:16;97764.06;;;-5.19;100.00
11936;BME280;6027;48.576;9.180;2024-01-11T01:54:42;97761.47;;;-5.40;100.00
11936;BME280;6027;48.576;9.180;2024-01-11T01:57:10;97775.84;;;-5.34;100.00
11936;BME280;6027;48.576;9.180;2024-01-11T01:59:36;97773.00;;;-5.28;100.00
11936;BME280;6027;48.576;9.180;2024-01-11T02:02:04;97774.09;;;-5.34;100.00
11936;BME280;6027;48.576;9.180;2024-01-11T02:04:29;97773.91;;;-5.29;100.00
11936;BME280;6027;48.576;9.180;2024-01-11T02:06:55;97770.03;;;-5.39;100.00
11936;BME280;6027;48.576;9.180;2024-01-11T02:09:22;97777.38;;;-5.30;100.00
11936;BME280;6027;48.576;9.180;2024-01-11T02:11:47;97777.44;;;-5.32;100.00
11936;BME280;6027;48.576;9.180;2024-01-11T02:14:13;97783.22;;;-5.25;100.00
11936;BME280;6027;48.576;9.180;2024-01-11T02:16:38;97784.53;;;-5.37;100.00
11936;BME280;6027;48.576;9.180;2024-01-11T02:19:07;97783.59;;;-5.56;100.00
11936;BME280;6027;48.576;9.180;2024-01-11T02:21:37;97781.84;;;-5.56;100.00
11936;BME280;6027;48.576;9.180;2024-01-11T02:24:03;97783.41;;;-5.51;100.00
11936;BME280;6027;48.576;9.180;2024-01-11T02:26:29;97784.19;;;-5.49;100.00
11936;BME280;6027;48.576;9.180;2024-01-11T02:28:54;97786.38;;;-5.39;100.00
11936;BME280;6027;48.576;9.180;2024-01-11T02:31:21;97782.28;;;-5.44;100.00
11936;BME280;6027;48.576;9.180;2024-01-11T02:33:47;97776.28;;;-5.45;100.00
11936;BME280;6027;48.576;9.180;2024-01-11T02:36:13;97780.38;;;-5.39;100.00
11936;BME280;6027;48.576;9.180;2024-01-11T02:38:41;97782.06;;;-5.60;100.00
11936;BME280;6027;48.576;9.180;2024-01-11T02:41:08;97774.16;;;-5.57;100.00
11936;BME280;6027;48.576;9.180;2024-01-11T02:43:34;97773.59;;;-5.64;100.00
11936;BME280;6027;48.576;9.180;2024-01-11T02:46:04;97774.38;;;-5.62;100.00
11936;BME280;6027;48.576;9.180;2024-01-11T02:48:30;97774.38;;;-5.62;100.00
11936;BME280;6027;48.576;9.180;2024-01-11T02:50:56;97779.16;;;-5.52;100.00
11936;BME280;6027;48.576;9.180;2024-01-11T02:53:22;97775.84;;;-5.56;100.00
11936;BME280;6027;48.576;9.180;2024-01-11T02:55:49;97780.72;;;-5.48;100.00
11936;BME280;6027;48.576;9.180;2024-01-11T02:58:14;97771.13;;;-5.67;100.00
11936;BME280;6027;48.576;9.180;2024-01-11T03:00:40;97776.06;;;-5.61;100.00
11936;BME280;6027;48.576;9.180;2024-01-11T03:03:05;97767.38;;;-5.58;100.00
11936;BME280;6027;48.576;9.180;2024-01-11T03:05:31;97770.41;;;-5.48;100.00
11936;BME280;6027;48.576;9.180;2024-01-11T03:07:56;97775.69;;;-5.51;100.00
11936;BME280;6027;48.576;9.180;2024-01-11T03:10:21;97774.91;;;-5.53;100.00
11936;BME280;6027;48.576;9.180;2024-01-11T03:12:48;97776.53;;;-5.51;100.00
11936;BME280;6027;48.576;9.180;2024-01-11T03:15:15;97773.16;;;-5.53;100.00
11936;BME280;6027;48.576;9.180;2024-01-11T03:17:41;97770.97;;;-5.62;100.00
11936;BME280;6027;48.576;9.180;2024-01-11T03:20:07;97766.72;;;-5.85;100.00
11936;BME280;6027;48.576;9.180;2024-01-11T03:22:32;97763.13;;;-5.81;100.00
11936;BME280;6027;48.576;9.180;2024-01-11T03:24:58;97758.59;;;-5.76;100.00
11936;BME280;6027;48.576;9.180;2024-01-11T03:27:23;97760.31;;;-5.76;100.00
11936;BME280;6027;48.576;9.180;2024-01-11T03:29:49;97760.59;;;-5.61;100.00
11936;BME280;6027;48.576;9.180;2024-01-11T03:32:15;97757.47;;;-5.69;100.00
11936;BME280;6027;48.576;9.180;2024-01-11T03:34:41;97755.44;;;-5.61;100.00
11936;BME280;6027;48.576;9.180;2024-01-11T03:37:06;97752.13;;;-5.64;100.00
11936;BME280;6027;48.576;9.180;2024-01-11T03:39:33;97756.63;;;-5.69;100.00
11936;BME280;6027;48.576;9.180;2024-01-11T03:41:58;97753.88;;;-5.65;100.00
11936;BME280;6027;48.576;9.180;2024-01-11T03:44:24;97751.00;;;-5.79;100.00
11936;BME280;6027;48.576;9.180;2024-01-11T03:46:49;97759.75;;;-5.83;100.00
11936;BME280;6027;48.576;9.180;2024-01-11T03:49:15;97761.06;;;-5.73;100.00
11936;BME280;6027;48.576;9.180;2024-01-11T03:51:40;97755.47;;;-5.62;100.00
11936;BME280;6027;48.576;9.180;2024-01-11T03:54:05;97754.59;;;-5.61;100.00
11936;BME280;6027;48.576;9.180;2024-01-11T03:56:31;97757.47;;;-5.69;100.00
11936;BME280;6027;48.576;9.180;2024-01-11T03:58:56;97757.47;;;-5.69;100.00
11936;BME280;6027;48.576;9.180;2024-01-11T04:01:22;97753.38;;;-5.74;100.00
11936;BME280;6027;48.576;9.180;2024-01-11T04:03:47;97755.03;;;-5.94;100.00
11936;BME280;6027;48.576;9.180;2024-01-11T04:06:22;97750.06;;;-5.98;100.00
11936;BME280;6027;48.576;9.180;2024-01-11T04:08:49;97747.72;;;-6.04;100.00
11936;BME280;6027;48.576;9.180;2024-01-11T04:11:15;97746.72;;;-6.00;100.00
11936;BME280;6027;48.576;9.180;2024-01-11T04:13:41;97753.94;;;-6.10;100.00
11936;BME280;6027;48.576;9.180;2024-01-11T04:16:06;97746.09;;;-6.07;100.00
11936;BME280;6027;48.576;9.180;2024-01-11T04:18:32;97747.63;;;-6.01;100.00
11936;BME280;6027;48.576;9.180;2024-01-11T04:20:58;97746.94;;;-6.06;100.00
11936;BME280;6027;48.576;9.180;2024-01-11T04:23:23;97747.06;;;-6.09;100.00
11936;BME280;6027;48.576;9.180;2024-01-11T04:25:48;97750.59;;;-6.12;100.00
11936;BME280;6027;48.576;9.180;2024-01-11T04:28:17;97745.81;;;-6.21;100.00
11936;BME280;6027;48.576;9.180;2024-01-11T04:30:42;97750.16;;;-6.23;100.00
11936;BME280;6027;48.576;9.180;2024-01-11T04:33:08;97746.03;;;-6.27;100.00
11936;BME280;6027;48.576;9.180;2024-01-11T04:35:33;97756.50;;;-6.32;100.00
11936;BME280;6027;48.576;9.180;2024-01-11T04:37:58;97757.44;;;-6.34;100.00
11936;BME280;6027;48.576;9.180;2024-01-11T04:40:24;97741.72;;;-6.50;100.00
11936;BME280;6027;48.576;9.180;2024-01-11T04:42:49;97743.28;;;-6.46;100.00
11936;BME280;6027;48.576;9.180;2024-01-11T04:45:15;97751.06;;;-6.47;100.00
11936;BME280;6027;48.576;9.180;2024-01-11T04:47:40;97756.34;;;-6.50;100.00
11936;BME280;6027;48.576;9.180;2024-01-11T04:50:06;97758.63;;;-6.43;100.00
11936;BME280;6027;48.576;9.180;2024-01-11T04:52:32;97764.34;;;-6.35;100.00
11936;BME280;6027;48.576;9.180;2024-01-11T04:54:57;97747.75;;;-6.28;100.00
11936;BME280;6027;48.576;9.180;2024-01-11T04:57:23;97743.91;;;-6.39;100.00
11936;BME280;6027;48.576;9.180;2024-01-11T04:59:48;97749.97;;;-6.40;100.00
11936;BME280;6027;48.576;9.180;2024-01-11T05:02:14;97754.78;;;-6.54;100.00
11936;BME280;6027;48.576;9.180;2024-01-11T05:04:39;97761.00;;;-6.60;100.00
11936;BME280;6027;48.576;9.180;2024-01-11T05:07:05;97753.28;;;-6.60;100.00
11936;BME280;6027;48.576;9.180;2024-01-11T05:09:31;97752.84;;;-6.73;100.00
11936;BME280;6027;48.576;9.180;2024-01-11T05:11:56;97740.69;;;-6.92;100.00
11936;BME280;6027;48.576;9.180;2024-01-11T05:14:21;97755.94;;;-6.86;100.00
11936;BME280;6027;48.576;9.180;2024-01-11T05:16:47;97750.63;;;-6.82;100.00
11936;BME280;6027;48.576;9.180;2024-01-11T05:19:12;97755.56;;;-6.76;100.00
11936;BME280;6027;48.576;9.180;2024-01-11T05:21:38;97757.94;;;-6.71;100.00
11936;BME280;6027;48.576;9.180;2024-01-11T05:24:03;97762.56;;;-6.56;100.00
11936;BME280;6027;48.576;9.180;2024-01-11T05:26:29;97763.47;;;-6.57;100.00
11936;BME280;6027;48.576;9.180;2024-01-11T05:28:54;97762.28;;;-6.48;100.00
11936;BME280;6027;48.576;9.180;2024-01-11T05:31:19;97762.13;;;-6.44;100.00
11936;BME280;6027;48.576;9.180;2024-01-11T05:33:45;97772.31;;;-6.41;100.00
11936;BME280;6027;48.576;9.180;2024-01-11T05:36:11;97780.81;;;-6.39;100.00
11936;BME280;6027;48.576;9.180;2024-01-11T05:38:38;97774.63;;;-6.35;100.00
11936;BME280;6027;48.576;9.180;2024-01-11T05:41:03;97775.25;;;-6.51;100.00
11936;BME280;6027;48.576;9.180;2024-01-11T05:43:29;97777.78;;;-6.50;100.00
11936;BME280;6027;48.576;9.180;2024-01-11T05:45:54;97772.41;;;-6.67;100.00
11936;BME280;6027;48.576;9.180;2024-01-11T05:48:20;97765.56;;;-6.68;100.00
11936;BME280;6027;48.576;9.180;2024-01-11T05:50:45;97779.53;;;-6.50;100.00
11936;BME280;6027;48.576;9.180;2024-01-11T05:53:11;97787.00;;;-6.68;100.00
11936;BME280;6027;48.576;9.180;2024-01-11T05:55:38;97789.69;;;-6.71;100.00
11936;BME280;6027;48.576;9.180;2024-01-11T05:58:03;97793.63;;;-6.60;100.00
11936;BME280;6027;48.576;9.180;2024-01-11T06:00:32;97803.66;;;-6.53;100.00
11936;BME280;6027;48.576;9.180;2024-01-11T06:02:58;97797.50;;;-6.49;100.00
11936;BME280;6027;48.576;9.180;2024-01-11T06:05:25;97802.28;;;-6.38;100.00
11936;BME280;6027;48.576;9.180;2024-01-11T06:07:50;97799.75;;;-6.40;100.00
11936;BME280;6027;48.576;9.180;2024-01-11T06:10:16;97795.91;;;-6.53;100.00
11936;BME280;6027;48.576;9.180;2024-01-11T06:12:42;97805.56;;;-6.58;100.00
11936;BME280;6027;48.576;9.180;2024-01-11T06:15:07;97799.47;;;-6.55;100.00
11936;BME280;6027;48.576;9.180;2024-01-11T06:17:33;97804.78;;;-6.60;100.00
11936;BME280;6027;48.576;9.180;2024-01-11T06:19:58;97812.44;;;-6.58;100.00
11936;BME280;6027;48.576;9.180;2024-01-11T06:22:24;97811.56;;;-6.57;100.00
11936;BME280;6027;48.576;9.180;2024-01-11T06:24:49;97805.03;;;-6.68;100.00
11936;BME280;6027;48.576;9.180;2024-01-11T06:27:14;97798.66;;;-6.81;100.00
11936;BME280;6027;48.576;9.180;2024-01-11T06:29:40;97816.34;;;-6.72;100.00
11936;BME280;6027;48.576;9.180;2024-01-11T06:32:05;97815.34;;;-6.68;100.00
11936;BME280;6027;48.576;9.180;2024-01-11T06:34:31;97810.19;;;-6.68;100.00
11936;BME280;6027;48.576;9.180;2024-01-11T06:36:56;97814.44;;;-6.67;100.00
11936;BME280;6027;48.576;9.180;2024-01-11T06:39:22;97809.78;;;-6.80;100.00
11936;BME280;6027;48.576;9.180;2024-01-11T06:41:47;97808.25;;;-6.86;100.00
11936;BME280;6027;48.576;9.180;2024-01-11T06:44:13;97810.56;;;-6.78;100.00
11936;BME280;6027;48.576;9.180;2024-01-11T06:46:38;97808.66;;;-6.73;100.00
11936;BME280;6027;48.576;9.180;2024-01-11T06:49:10;97803.94;;;-6.85;100.00
11936;BME280;6027;48.576;9.180;2024-01-11T06:51:35;97818.16;;;-6.74;100.00
11936;BME280;6027;48.576;9.180;2024-01-11T06:54:01;97807.75;;;-6.95;100.00
11936;BME280;6027;48.576;9.180;2024-01-11T06:56:27;97819.88;;;-6.74;100.00
11936;BME280;6027;48.576;9.180;2024-01-11T06:58:53;97817.75;;;-6.63;100.00
11936;BME280;6027;48.576;9.180;2024-01-11T07:01:19;97829.06;;;-6.67;100.00
11936;BME280;6027;48.576;9.180;2024-01-11T07:03:45;97830.06;;;-6.71;100.00
11936;BME280;6027;48.576;9.180;2024-01-11T07:06:10;97826.28;;;-6.86;100.00
11936;BME280;6027;48.576;9.180;2024-01-11T07:08:36;97817.88;;;-6.91;100.00
11936;BME280;6027;48.576;9.180;2024-01-11T07:11:02;97824.59;;;-6.87;100.00
11936;BME280;6027;48.576;9.180;2024-01-11T07:13:29;97823.75;;;-6.87;100.00
11936;BME280;6027;48.576;9.180;2024-01-11T07:15:54;97813.94;;;-7.01;100.00
11936;BME280;6027;48.576;9.180;2024-01-11T07:18:21;97841.78;;;-6.87;100.00
11936;BME280;6027;48.576;9.180;2024-01-11T07:20:46;97848.41;;;-6.80;100.00
11936;BME280;6027;48.576;9.180;2024-01-11T07:23:13;97857.47;;;-6.70;100.00
11936;BME280;6027;48.576;9.180;2024-01-11T07:25:39;97853.03;;;-6.65;100.00
11936;BME280;6027;48.576;9.180;2024-01-11T07:28:05;97849.75;;;-6.70;100.00
11936;BME280;6027;48.576;9.180;2024-01-11T07:30:31;97855.94;;;-6.74;100.00
11936;BME280;6027;48.576;9.180;2024-01-11T07:32:56;97869.47;;;-6.69;100.00
11936;BME280;6027;48.576;9.180;2024-01-11T07:35:22;97864.22;;;-6.66;100.00
11936;BME280;6027;48.576;9.180;2024-01-11T07:37:47;97870.94;;;-6.62;100.00
11936;BME280;6027;48.576;9.180;2024-01-11T07:40:13;97864.25;;;-6.68;100.00
11936;BME280;6027;48.576;9.180;2024-01-11T07:42:39;97862.72;;;-6.73;100.00
11936;BME280;6027;48.576;9.180;2024-01-11T07:45:05;97853.28;;;-6.73;100.00
11936;BME280;6027;48.576;9.180;2024-01-11T07:47:31;97853.75;;;-6.86;100.00
11936;BME280;6027;48.576;9.180;2024-01-11T07:49:57;97866.09;;;-6.71;100.00
11936;BME280;6027;48.576;9.180;2024-01-11T07:52:22;97864.00;;;-6.60;100.00
11936;BME280;6027;48.576;9.180;2024-01-11T07:54:47;97862.50;;;-6.92;100.00
11936;BME280;6027;48.576;9.180;2024-01-11T07:57:13;97858.91;;;-6.86;100.00
11936;BME280;6027;48.576;9.180;2024-01-11T07:59:39;97857.75;;;-6.78;100.00
11936;BME280;6027;48.576;9.180;2024-01-11T08:02:04;97862.59;;;-6.69;100.00
11936;BME280;6027;48.576;9.180;2024-01-11T08:04:31;97871.59;;;-6.55;100.00
11936;BME280;6027;48.576;9.180;2024-01-11T08:06:56;97883.63;;;-6.56;100.00
11936;BME280;6027;48.576;9.180;2024-01-11T08:09:25;97879.09;;;-6.49;100.00
11936;BME280;6027;48.576;9.180;2024-01-11T08:11:51;97882.97;;;-6.38;100.00
11936;BME280;6027;48.576;9.180;2024-01-11T08:14:17;97881.97;;;-6.34;100.00
11936;BME280;6027;48.576;9.180;2024-01-11T08:16:43;97896.72;;;-6.37;100.00
11936;BME280;6027;48.576;9.180;2024-01-11T08:19:08;97905.28;;;-6.37;100.00
11936;BME280;6027;48.576;9.180;2024-01-11T08:21:35;97897.69;;;-6.41;100.00
11936;BME280;6027;48.576;9.180;2024-01-11T08:24:01;97897.84;;;-6.46;100.00
11936;BME280;6027;48.576;9.180;2024-01-11T08:26:28;97893.75;;;-6.51;100.00
11936;BME280;6027;48.576;9.180;2024-01-11T08:28:55;97918.03;;;-6.34;100.00
11936;BME280;6027;48.576;9.180;2024-01-11T08:31:20;97933.28;;;-6.28;100.00
11936;BME280;6027;48.576;9.180;2024-01-11T08:33:46;97939.19;;;-6.24;100.00
11936;BME280;6027;48.576;9.180;2024-01-11T08:36:12;97936.28;;;-6.15;100.00
11936;BME280;6027;48.576;9.180;2024-01-11T08:38:39;97921.53;;;-6.11;100.00
11936;BME280;6027;48.576;9.180;2024-01-11T08:41:04;97918.81;;;-6.07;100.00
11936;BME280;6027;48.576;9.180;2024-01-11T08:43:29;97923.38;;;-6.15;100.00
11936;BME280;6027;48.576;9.180;2024-01-11T08:45:55;97914.19;;;-5.97;100.00
11936;BME280;6027;48.576;9.180;2024-01-11T08:48:20;97932.59;;;-5.84;100.00
11936;BME280;6027;48.576;9.180;2024-01-11T08:50:46;97940.84;;;-5.76;100.00
11936;BME280;6027;48.576;9.180;2024-01-11T08:53:12;97934.25;;;-5.60;100.00
11936;BME280;6027;48.576;9.180;2024-01-11T08:55:37;97910.78;;;-5.54;100.00
11936;BME280;6027;48.576;9.180;2024-01-11T08:58:02;97938.91;;;-5.25;100.00
11936;BME280;6027;48.576;9.180;2024-01-11T09:00:29;97943.03;;;-4.99;100.00
11936;BME280;6027;48.576;9.180;2024-01-11T09:02:55;97941.56;;;-4.82;100.00
11936;BME280;6027;48.576;9.180;2024-01-11T09:05:20;97954.50;;;-4.62;100.00
11936;BME280;6027;48.576;9.180;2024-01-11T09:07:46;97941.56;;;-4.42;100.00
11936;BME280;6027;48.576;9.180;2024-01-11T09:10:12;97944.81;;;-4.17;100.00
11936;BME280;6027;48.576;9.180;2024-01-11T09:12:37;97945.22;;;-4.05;100.00
11936;BME280;6027;48.576;9.180;2024-01-11T09:15:03;97947.31;;;-3.95;100.00
11936;BME280;6027;48.576;9.180;2024-01-11T09:17:28;97948.91;;;-3.72;100.00
11936;BME280;6027;48.576;9.180;2024-01-11T09:19:54;97947.88;;;-3.68;100.00
11936;BME280;6027;48.576;9.180;2024-01-11T09:22:19;97949.16;;;-3.78;100.00
11936;BME280;6027;48.576;9.180;2024-01-11T09:24:45;97933.31;;;-3.70;100.00
11936;BME280;6027;48.576;9.180;2024-01-11T09:27:10;97921.59;;;-3.98;100.00
11936;BME280;6027;48.576;9.180;2024-01-11T09:29:36;97933.13;;;-4.25;100.00
11936;BME280;6027;48.576;9.180;2024-01-11T09:32:01;97935.50;;;-4.21;100.00
11936;BME280;6027;48.576;9.180;2024-01-11T09:34:29;97928.34;;;-4.34;100.00
11936;BME280;6027;48.576;9.180;2024-01-11T09:36:54;97937.34;;;-4.43;100.00
11936;BME280;6027;48.576;9.180;2024-01-11T09:39:23;97930.13;;;-4.57;100.00
11936;BME280;6027;48.576;9.180;2024-01-11T09:41:58;97946.66;;;-4.61;100.00
11936;BME280;6027;48.576;9.180;2024-01-11T09:44:25;97949.69;;;-4.71;100.00
11936;BME280;6027;48.576;9.180;2024-01-11T09:46:51;97941.69;;;-4.85;100.00
11936;BME280;6027;48.576;9.180;2024-01-11T09:49:19;97946.84;;;-4.85;100.00
11936;BME280;6027;48.576;9.180;2024-01-11T09:51:47;97952.59;;;-4.79;100.00
11936;BME280;6027;48.576;9.180;2024-01-11T09:54:14;97937.03;;;-4.77;100.00
11936;BME280;6027;48.576;9.180;2024-01-11T09:56:40;97941.47;;;-4.81;100.00
11936;BME280;6027;48.576;9.180;2024-01-11T09:59:08;97944.06;;;-4.81;100.00
11936;BME280;6027;48.576;9.180;2024-01-11T10:01:35;97940.38;;;-4.75;100.00
11936;BME280;6027;48.576;9.180;2024-01-11T10:04:01;97939.00;;;-4.62;100.00
11936;BME280;6027;48.576;9.180;2024-01-11T10:06:32;97934.03;;;-4.46;100.00
11936;BME280;6027;48.576;9.180;2024-01-11T10:08:58;97935.00;;;-4.49;100.00
11936;BME280;6027;48.576;9.180;2024-01-11T10:11:24;97932.06;;;-4.62;100.00
11936;BME280;6027;48.576;9.180;2024-01-11T10:13:56;97938.69;;;-4.34;100.00
11936;BME280;6027;48.576;9.180;2024-01-11T10:16:22;97928.66;;;-4.22;100.00
11936;BME280;6027;48.576;9.180;2024-01-11T10:18:53;97926.84;;;-4.20;100.00
11936;BME280;6027;48.576;9.180;2024-01-11T10:21:19;97928.91;;;-4.07;100.00
11936;BME280;6027;48.576;9.180;2024-01-11T10:23:44;97931.94;;;-3.98;100.00
11936;BME280;6027;48.576;9.180;2024-01-11T10:26:09;97930.13;;;-3.96;100.00
11936;BME280;6027;48.576;9.180;2024-01-11T10:28:35;97921.91;;;-3.85;100.00
11936;BME280;6027;48.576;9.180;2024-01-11T10:31:03;97913.69;;;-3.95;100.00
11936;BME280;6027;48.576;9.180;2024-01-11T10:33:33;97918.25;;;-3.81;100.00
11936;BME280;6027;48.576;9.180;2024-01-11T10:36:00;97915.00;;;-3.66;100.00
11936;BME280;6027;48.576;9.180;2024-01-11T10:38:26;97905.88;;;-3.56;100.00
11936;BME280;6027;48.576;9.180;2024-01-11T10:40:53;97903.63;;;-3.26;100.00
11936;BME280;6027;48.576;9.180;2024-01-11T10:43:22;97907.69;;;-3.39;100.00
11936;BME280;6027;48.576;9.180;2024-01-11T10:45:52;97912.09;;;-3.41;100.00
11936;BME280;6027;48.576;9.180;2024-01-11T10:48:24;97911.19;;;-3.21;100.00
11936;BME280;6027;48.576;9.180;2024-01-11T10:50:54;97886.13;;;-3.21;100.00
11936;BME280;6027;48.576;9.180;2024-01-11T10:55:50;97900.44;;;-2.95;100.00
11936;BME280;6027;48.576;9.180;2024-01-11T10:58:15;97895.09;;;-2.92;100.00
11936;BME280;6027;48.576;9.180;2024-01-11T11:00:41;97889.09;;;-2.75;100.00
11936;BME280;6027;48.576;9.180;2024-01-11T11:03:07;97909.34;;;-2.66;100.00
11936;BME280;6027;48.576;9.180;2024-01-11T11:05:34;97906.19;;;-2.54;100.00
11936;BME280;6027;48.576;9.180;2024-01-11T11:08:03;97907.94;;;-2.37;100.00
11936;BME280;6027;48.576;9.180;2024-01-11T11:10:32;97899.81;;;-2.31;100.00
11936;BME280;6027;48.576;9.180;2024-01-11T11:12:59;97911.66;;;-2.42;100.00
11936;BME280;6027;48.576;9.180;2024-01-11T11:15:27;97910.41;;;-2.18;100.00
11936;BME280;6027;48.576;9.180;2024-01-11T11:17:52;97909.28;;;-2.30;100.00
11936;BME280;6027;48.576;9.180;2024-01-11T11:20:18;97915.22;;;-2.28;100.00
11936;BME280;6027;48.576;9.180;2024-01-11T11:23:02;97903.72;;;-2.22;100.00
11936;BME280;6027;48.576;9.180;2024-01-11T11:25:30;97905.47;;;-2.23;100.00
11936;BME280;6027;48.576;9.180;2024-01-11T11:27:55;97911.69;;;-2.10;100.00
11936;BME280;6027;48.576;9.180;2024-01-11T11:30:21;97917.97;;;-2.31;100.00
11936;BME280;6027;48.576;9.180;2024-01-11T11:32:46;97929.56;;;-2.21;100.00
11936;BME280;6027;48.576;9.180;2024-01-11T11:35:12;97917.66;;;-2.08;100.00
11936;BME280;6027;48.576;9.180;2024-01-11T11:37:38;97912.00;;;-1.98;100.00
11936;BME280;6027;48.576;9.180;2024-01-11T11:40:10;97903.63;;;-1.88;100.00
11936;BME280;6027;48.576;9.180;2024-01-11T11:42:36;97904.25;;;-1.83;100.00
11936;BME280;6027;48.576;9.180;2024-01-11T11:45:02;97904.84;;;-1.78;100.00
11936;BME280;6027;48.576;9.180;2024-01-11T11:47:35;97903.34;;;-1.66;100.00
11936;BME280;6027;48.576;9.180;2024-01-11T11:50:07;97912.75;;;-1.48;100.00
11936;BME280;6027;48.576;9.180;2024-01-11T11:52:34;97912.34;;;-1.56;100.00
11936;BME280;6027;48.576;9.180;2024-01-11T11:55:04;97917.94;;;-1.48;100.00
11936;BME280;6027;48.576;9.180;2024-01-11T11:57:30;97911.25;;;-1.36;100.00
11936;BME280;6027;48.576;9.180;2024-01-11T11:59:56;97905.78;;;-1.63;100.00
11936;BME280;6027;48.576;9.180;2024-01-11T12:02:26;97888.22;;;-1.58;100.00
11936;BME280;6027;48.576;9.180;2024-01-11T12:04:53;97877.38;;;-1.66;100.00
11936;BME280;6027;48.576;9.180;2024-01-11T12:07:22;97875.97;;;-1.40;100.00
11936;BME280;6027;48.576;9.180;2024-01-11T12:09:49;97861.91;;;-1.36;100.00
11936;BME280;6027;48.576;9.180;2024-01-11T12:12:18;97852.16;;;-1.32;100.00
11936;BME280;6027;48.576;9.180;2024-01-11T12:14:48;97846.91;;;-1.47;100.00
11936;BME280;6027;48.576;9.180;2024-01-11T12:17:15;97871.94;;;-1.30;100.00
11936;BME280;6027;48.576;9.180;2024-01-11T12:19:41;97869.44;;;-1.16;100.00
11936;BME280;6027;48.576;9.180;2024-01-11T12:22:06;97859.69;;;-1.12;100.00
11936;BME280;6027;48.576;9.180;2024-01-11T12:24:32;97853.69;;;-1.28;100.00
11936;BME280;6027;48.576;9.180;2024-01-11T12:26:59;97843.72;;;-1.20;100.00
11936;BME280;6027;48.576;9.180;2024-01-11T12:29:28;97845.78;;;-1.11;100.00
11936;BME280;6027;48.576;9.180;2024-01-11T12:31:56;97839.41;;;-1.06;100.00
11936;BME280;6027;48.576;9.180;2024-01-11T12:34:22;97848.91;;;-1.20;100.00
11936;BME280;6027;48.576;9.180;2024-01-11T12:36:48;97844.63;;;-1.21;100.00
11936;BME280;6027;48.576;9.180;2024-01-11T12:39:16;97840.31;;;-1.07;100.00
11936;BME280;6027;48.576;9.180;2024-01-11T12:41:42;97832.59;;;-1.08;100.00
11936;BME280;6027;48.576;9.180;2024-01-11T12:44:08;97837.00;;;-1.24;100.00
11936;BME280;6027;48.576;9.180;2024-01-11T12:46:33;97834.44;;;-1.40;100.00
11936;BME280;6027;48.576;9.180;2024-01-11T12:48:59;97830.66;;;-1.50;100.00
11936;BME280;6027;48.576;9.180;2024-01-11T12:51:25;97846.13;;;-1.49;100.00
11936;BME280;6027;48.576;9.180;2024-01-11T12:53:52;97830.06;;;-1.40;100.00
11936;BME280;6027;48.576;9.180;2024-01-11T12:56:18;97835.50;;;-1.28;100.00